sensor_id;sensor_type;location;lat;lon;timestamp;temperature;humidity
70593;DHT22;58294;42.988;20.338;2023-07-08T00:00:27;410.40;2355.20
70593;DHT22;58294;42.988;20.338;2023-07-08T00:02:53;410.40;2355.20
70593;DHT22;58294;42.988;20.338;2023-07-08T00:05:20;410.40;2355.20
70593;DHT22;58294;42.988;20.338;2023-07-08T00:07:47;410.50;2355.20
70593;DHT22;58294;42.988;20.338;2023-07-08T00:10:20;410.50;2355.20
70593;DHT22;58294;42.988;20.338;2023-07-08T00:12:49;410.40;2355.20
70593;DHT22;58294;42.988;20.338;2023-07-08T00:15:16;410.40;2355.20
70593;DHT22;58294;42.988;20.338;2023-07-08T00:17:42;410.40;2355.20
70593;DHT22;58294;42.988;20.338;2023-07-08T00:20:18;410.40;2355.20
70593;DHT22;58294;42.988;20.338;2023-07-08T00:22:46;410.40;2355.20
70593;DHT22;58294;42.988;20.338;2023-07-08T00:25:16;410.40;2355.20
70593;DHT22;58294;42.988;20.338;2023-07-08T00:27:42;410.40;2355.20
70593;DHT22;58294;42.988;20.338;2023-07-08T00:30:30;410.40;2355.20
70593;DHT22;58294;42.988;20.338;2023-07-08T00:32:57;410.40;2355.20
70593;DHT22;58294;42.988;20.338;2023-07-08T00:35:33;410.50;2355.20
70593;DHT22;58294;42.988;20.338;2023-07-08T00:38:00;410.50;2355.20
70593;DHT22;58294;42.988;20.338;2023-07-08T00:40:31;410.50;2355.20
70593;DHT22;58294;42.988;20.338;2023-07-08T00:43:00;410.50;2355.20
70593;DHT22;58294;42.988;20.338;2023-07-08T00:48:03;410.50;2355.20
70593;DHT22;58294;42.988;20.338;2023-07-08T00:50:30;410.50;2355.20
70593;DHT22;58294;42.988;20.338;2023-07-08T00:55:46;435.20;2355.20
70593;DHT22;58294;42.988;20.338;2023-07-08T00:58:12;435.20;2355.20
70593;DHT22;58294;42.988;20.338;2023-07-08T01:00:38;435.20;2355.20
70593;DHT22;58294;42.988;20.338;2023-07-08T01:03:04;435.20;2355.20
70593;DHT22;58294;42.988;20.338;2023-07-08T01:05:30;435.20;2355.20
70593;DHT22;58294;42.988;20.338;2023-07-08T01:07:58;435.20;2355.20
70593;DHT22;58294;42.988;20.338;2023-07-08T01:10:44;435.20;2355.20
70593;DHT22;58294;42.988;20.338;2023-07-08T01:13:12;435.30;2355.20
70593;DHT22;58294;42.988;20.338;2023-07-08T01:15:42;435.30;2355.20
70593;DHT22;58294;42.988;20.338;2023-07-08T01:18:10;435.30;2355.20
70593;DHT22;58294;42.988;20.338;2023-07-08T01:20:37;435.30;2355.20
70593;DHT22;58294;42.988;20.338;2023-07-08T01:23:03;435.40;2355.20
70593;DHT22;58294;42.988;20.338;2023-07-08T01:25:31;435.40;2355.20
70593;DHT22;58294;42.988;20.338;2023-07-08T01:27:58;435.40;2355.20
70593;DHT22;58294;42.988;20.338;2023-07-08T01:30:23;435.40;2355.20
70593;DHT22;58294;42.988;20.338;2023-07-08T01:32:56;435.40;2355.20
70593;DHT22;58294;42.988;20.338;2023-07-08T01:35:23;435.40;2355.20
70593;DHT22;58294;42.988;20.338;2023-07-08T01:37:54;435.40;2355.20
70593;DHT22;58294;42.988;20.338;2023-07-08T01:40:31;435.40;2355.20
70593;DHT22;58294;42.988;20.338;2023-07-08T01:42:58;435.40;2355.20
70593;DHT22;58294;42.988;20.338;2023-07-08T01:45:27;435.30;2355.20
70593;DHT22;58294;42.988;20.338;2023-07-08T01:48:02;435.30;2355.20
70593;DHT22;58294;42.988;20.338;2023-07-08T01:50:29;435.20;2355.20
70593;DHT22;58294;42.988;20.338;2023-07-08T01:52:59;435.20;2355.20
70593;DHT22;58294;42.988;20.338;2023-07-08T01:55:26;410.50;2355.20
70593;DHT22;58294;42.988;20.338;2023-07-08T01:57:54;410.50;2355.20
70593;DHT22;58294;42.988;20.338;2023-07-08T02:00:21;410.40;2355.20
70593;DHT22;58294;42.988;20.338;2023-07-08T02:02:47;410.40;2355.20
70593;DHT22;58294;42.988;20.338;2023-07-08T02:05:13;410.40;2355.20
70593;DHT22;58294;42.988;20.338;2023-07-08T02:07:39;410.30;2355.20
70593;DHT22;58294;42.988;20.338;2023-07-08T02:10:05;410.30;2355.20
70593;DHT22;58294;42.988;20.338;2023-07-08T02:12:31;410.20;2355.20
70593;DHT22;58294;42.988;20.338;2023-07-08T02:15:00;410.20;2355.20
70593;DHT22;58294;42.988;20.338;2023-07-08T02:17:27;410.10;2355.20
70593;DHT22;58294;42.988;20.338;2023-07-08T02:19:57;410.00;2355.20
70593;DHT22;58294;42.988;20.338;2023-07-08T02:22:23;410.00;2355.20
70593;DHT22;58294;42.988;20.338;2023-07-08T02:24:48;409.90;2355.20
70593;DHT22;58294;42.988;20.338;2023-07-08T02:27:15;409.90;2355.20
70593;DHT22;58294;42.988;20.338;2023-07-08T02:29:41;409.80;2355.20
70593;DHT22;58294;42.988;20.338;2023-07-08T02:32:07;409.80;2355.20
70593;DHT22;58294;42.988;20.338;2023-07-08T02:34:37;409.80;2355.20
70593;DHT22;58294;42.988;20.338;2023-07-08T02:37:04;409.70;2355.20
70593;DHT22;58294;42.988;20.338;2023-07-08T02:39:30;409.80;2355.20
70593;DHT22;58294;42.988;20.338;2023-07-08T02:41:55;409.80;2355.20
70593;DHT22;58294;42.988;20.338;2023-07-08T02:44:22;409.80;2355.20
70593;DHT22;58294;42.988;20.338;2023-07-08T02:46:48;409.80;2355.20
70593;DHT22;58294;42.988;20.338;2023-07-08T02:49:13;409.80;2355.20
70593;DHT22;58294;42.988;20.338;2023-07-08T02:51:39;409.80;2355.20
70593;DHT22;58294;42.988;20.338;2023-07-08T02:54:05;409.80;2355.20
70593;DHT22;58294;42.988;20.338;2023-07-08T02:56:31;409.70;2355.20
70593;DHT22;58294;42.988;20.338;2023-07-08T02:58:56;409.70;2355.20
70593;DHT22;58294;42.988;20.338;2023-07-08T03:01:22;409.60;2355.20
70593;DHT22;58294;42.988;20.338;2023-07-08T03:03:48;409.60;2355.20
70593;DHT22;58294;42.988;20.338;2023-07-08T03:06:15;409.60;2355.20
70593;DHT22;58294;42.988;20.338;2023-07-08T03:08:41;409.60;2355.20
70593;DHT22;58294;42.988;20.338;2023-07-08T03:11:08;409.60;2355.20
70593;DHT22;58294;42.988;20.338;2023-07-08T03:13:34;409.60;2355.20
70593;DHT22;58294;42.988;20.338;2023-07-08T03:16:01;409.70;2355.20
70593;DHT22;58294;42.988;20.338;2023-07-08T03:18:28;409.70;2355.20
70593;DHT22;58294;42.988;20.338;2023-07-08T03:20:55;409.70;2355.20
70593;DHT22;58294;42.988;20.338;2023-07-08T03:23:23;409.80;2355.20
70593;DHT22;58294;42.988;20.338;2023-07-08T03:25:50;409.80;2355.20
70593;DHT22;58294;42.988;20.338;2023-07-08T03:28:15;409.80;2355.20
70593;DHT22;58294;42.988;20.338;2023-07-08T03:30:43;409.70;2355.20
70593;DHT22;58294;42.988;20.338;2023-07-08T03:33:10;409.70;2355.20
70593;DHT22;58294;42.988;20.338;2023-07-08T03:35:36;409.80;2355.20
70593;DHT22;58294;42.988;20.338;2023-07-08T03:38:04;409.80;2355.20
70593;DHT22;58294;42.988;20.338;2023-07-08T03:40:30;409.80;2355.20
70593;DHT22;58294;42.988;20.338;2023-07-08T03:42:56;409.70;2355.20
70593;DHT22;58294;42.988;20.338;2023-07-08T03:45:22;409.70;2355.20
70593;DHT22;58294;42.988;20.338;2023-07-08T03:47:48;409.70;2355.20
70593;DHT22;58294;42.988;20.338;2023-07-08T03:50:21;409.80;2355.20
70593;DHT22;58294;42.988;20.338;2023-07-08T03:52:48;409.80;2355.20
70593;DHT22;58294;42.988;20.338;2023-07-08T03:55:15;409.80;2355.20
70593;DHT22;58294;42.988;20.338;2023-07-08T03:57:40;409.70;2355.20
70593;DHT22;58294;42.988;20.338;2023-07-08T04:00:07;409.70;2355.20
70593;DHT22;58294;42.988;20.338;2023-07-08T04:02:38;409.70;2355.20
70593;DHT22;58294;42.988;20.338;2023-07-08T04:05:05;409.70;2355.20
70593;DHT22;58294;42.988;20.338;2023-07-08T04:07:32;409.70;2355.20
70593;DHT22;58294;42.988;20.338;2023-07-08T04:09:57;409.70;2355.20
70593;DHT22;58294;42.988;20.338;2023-07-08T04:12:23;409.70;2355.20
70593;DHT22;58294;42.988;20.338;2023-07-08T04:14:49;409.70;2355.20
70593;DHT22;58294;42.988;20.338;2023-07-08T04:17:15;409.80;2355.20
70593;DHT22;58294;42.988;20.338;2023-07-08T04:19:43;409.90;2355.20
70593;DHT22;58294;42.988;20.338;2023-07-08T04:22:09;409.90;2355.20
70593;DHT22;58294;42.988;20.338;2023-07-08T04:24:35;410.00;2355.20
70593;DHT22;58294;42.988;20.338;2023-07-08T04:27:01;409.90;2355.20
70593;DHT22;58294;42.988;20.338;2023-07-08T04:29:27;409.90;2355.20
70593;DHT22;58294;42.988;20.338;2023-07-08T04:31:53;409.90;2355.20
70593;DHT22;58294;42.988;20.338;2023-07-08T04:34:19;410.00;2355.20
70593;DHT22;58294;42.988;20.338;2023-07-08T04:36:46;410.00;2355.20
70593;DHT22;58294;42.988;20.338;2023-07-08T04:39:13;410.10;2355.20
70593;DHT22;58294;42.988;20.338;2023-07-08T04:41:40;410.20;2355.20
70593;DHT22;58294;42.988;20.338;2023-07-08T04:44:13;410.30;2355.20
70593;DHT22;58294;42.988;20.338;2023-07-08T04:49:08;410.40;2355.20
70593;DHT22;58294;42.988;20.338;2023-07-08T04:51:39;410.50;2355.20
70593;DHT22;58294;42.988;20.338;2023-07-08T04:54:05;435.20;2355.20
70593;DHT22;58294;42.988;20.338;2023-07-08T04:56:38;435.20;2355.20
70593;DHT22;58294;42.988;20.338;2023-07-08T04:59:05;435.20;2355.20
70593;DHT22;58294;42.988;20.338;2023-07-08T05:01:31;435.20;2355.20
70593;DHT22;58294;42.988;20.338;2023-07-08T05:03:57;435.20;2355.20
70593;DHT22;58294;42.988;20.338;2023-07-08T05:06:23;435.20;2355.20
70593;DHT22;58294;42.988;20.338;2023-07-08T05:08:48;435.20;2355.20
70593;DHT22;58294;42.988;20.338;2023-07-08T05:11:14;410.50;2355.20
70593;DHT22;58294;42.988;20.338;2023-07-08T05:13:40;410.50;2355.20
70593;DHT22;58294;42.988;20.338;2023-07-08T05:16:06;410.40;2355.20
70593;DHT22;58294;42.988;20.338;2023-07-08T05:18:32;410.30;2355.20
70593;DHT22;58294;42.988;20.338;2023-07-08T05:20:57;410.30;2355.20
70593;DHT22;58294;42.988;20.338;2023-07-08T05:23:23;410.30;2355.20
70593;DHT22;58294;42.988;20.338;2023-07-08T05:25:49;410.30;2355.20
70593;DHT22;58294;42.988;20.338;2023-07-08T05:28:15;410.40;2355.20
70593;DHT22;58294;42.988;20.338;2023-07-08T05:30:41;410.40;2355.20
70593;DHT22;58294;42.988;20.338;2023-07-08T05:33:09;410.40;2355.20
70593;DHT22;58294;42.988;20.338;2023-07-08T05:35:34;410.40;2355.20
70593;DHT22;58294;42.988;20.338;2023-07-08T05:38:01;410.40;2355.20
70593;DHT22;58294;42.988;20.338;2023-07-08T05:40:28;410.50;2355.20
70593;DHT22;58294;42.988;20.338;2023-07-08T05:42:53;410.50;2355.20
70593;DHT22;58294;42.988;20.338;2023-07-08T05:45:19;435.20;2355.20
70593;DHT22;58294;42.988;20.338;2023-07-08T05:47:45;435.20;2355.20
70593;DHT22;58294;42.988;20.338;2023-07-08T05:50:11;435.30;2355.20
70593;DHT22;58294;42.988;20.338;2023-07-08T05:52:36;435.40;2355.20
70593;DHT22;58294;42.988;20.338;2023-07-08T05:55:02;435.50;2355.20
70593;DHT22;58294;42.988;20.338;2023-07-08T05:57:28;435.50;2355.20
70593;DHT22;58294;42.988;20.338;2023-07-08T05:59:54;435.60;2355.20
70593;DHT22;58294;42.988;20.338;2023-07-08T06:02:21;435.60;2355.20
70593;DHT22;58294;42.988;20.338;2023-07-08T06:04:48;435.70;2355.20
70593;DHT22;58294;42.988;20.338;2023-07-08T06:07:14;435.80;2355.20
70593;DHT22;58294;42.988;20.338;2023-07-08T06:09:41;435.90;2355.20
70593;DHT22;58294;42.988;20.338;2023-07-08T06:12:07;436.00;2355.20
70593;DHT22;58294;42.988;20.338;2023-07-08T06:14:33;436.10;2355.20
70593;DHT22;58294;42.988;20.338;2023-07-08T06:16:59;460.80;2380.80
70593;DHT22;58294;42.988;20.338;2023-07-08T06:21:51;461.00;2380.80
70593;DHT22;58294;42.988;20.338;2023-07-08T06:24:16;461.00;2380.80
70593;DHT22;58294;42.988;20.338;2023-07-08T06:26:42;461.00;2380.80
70593;DHT22;58294;42.988;20.338;2023-07-08T06:29:08;461.10;2380.80
70593;DHT22;58294;42.988;20.338;2023-07-08T06:31:34;461.10;2380.80
70593;DHT22;58294;42.988;20.338;2023-07-08T06:34:00;461.10;2380.80
70593;DHT22;58294;42.988;20.338;2023-07-08T06:36:27;461.20;2380.80
70593;DHT22;58294;42.988;20.338;2023-07-08T06:38:52;461.20;2380.80
70593;DHT22;58294;42.988;20.338;2023-07-08T06:41:18;461.30;2380.80
70593;DHT22;58294;42.988;20.338;2023-07-08T06:43:44;461.40;2380.80
70593;DHT22;58294;42.988;20.338;2023-07-08T06:46:10;461.50;2380.80
70593;DHT22;58294;42.988;20.338;2023-07-08T06:48:36;461.60;2380.80
70593;DHT22;58294;42.988;20.338;2023-07-08T06:51:02;486.40;2380.80
70593;DHT22;58294;42.988;20.338;2023-07-08T06:53:28;486.40;2380.80
70593;DHT22;58294;42.988;20.338;2023-07-08T06:55:53;486.50;2380.80
70593;DHT22;58294;42.988;20.338;2023-07-08T06:58:19;486.60;2380.80
70593;DHT22;58294;42.988;20.338;2023-07-08T07:03:12;486.80;2380.80
70593;DHT22;58294;42.988;20.338;2023-07-08T07:05:38;486.90;2380.80
70593;DHT22;58294;42.988;20.338;2023-07-08T07:08:04;486.90;2380.80
70593;DHT22;58294;42.988;20.338;2023-07-08T07:10:31;487.00;2380.80
70593;DHT22;58294;42.988;20.338;2023-07-08T07:12:56;487.10;2380.80
70593;DHT22;58294;42.988;20.338;2023-07-08T07:15:22;487.00;2380.80
70593;DHT22;58294;42.988;20.338;2023-07-08T07:20:14;487.20;2380.80
70593;DHT22;58294;42.988;20.338;2023-07-08T07:25:06;512.00;2380.80
70593;DHT22;58294;42.988;20.338;2023-07-08T07:27:32;512.10;2380.80
70593;DHT22;58294;42.988;20.338;2023-07-08T07:29:58;512.10;2380.80
70593;DHT22;58294;42.988;20.338;2023-07-08T07:32:27;512.20;2380.80
70593;DHT22;58294;42.988;20.338;2023-07-08T07:34:55;512.10;2380.80
70593;DHT22;58294;42.988;20.338;2023-07-08T07:37:23;512.30;2380.80
70593;DHT22;58294;42.988;20.338;2023-07-08T07:39:49;512.40;2380.80
70593;DHT22;58294;42.988;20.338;2023-07-08T07:42:16;512.50;2380.80
70593;DHT22;58294;42.988;20.338;2023-07-08T07:44:42;512.60;2380.80
70593;DHT22;58294;42.988;20.338;2023-07-08T07:47:09;512.70;2380.80
70593;DHT22;58294;42.988;20.338;2023-07-08T07:49:35;512.80;2380.80
70593;DHT22;58294;42.988;20.338;2023-07-08T07:56:56;537.80;2406.40
70593;DHT22;58294;42.988;20.338;2023-07-08T07:59:25;538.00;2406.40
70593;DHT22;58294;42.988;20.338;2023-07-08T08:01:51;538.00;2406.40
70593;DHT22;58294;42.988;20.338;2023-07-08T08:04:19;538.00;2406.40
70593;DHT22;58294;42.988;20.338;2023-07-08T08:06:45;538.10;2406.40
70593;DHT22;58294;42.988;20.338;2023-07-08T08:09:11;538.20;2406.40
70593;DHT22;58294;42.988;20.338;2023-07-08T08:11:37;538.20;2406.40
70593;DHT22;58294;42.988;20.338;2023-07-08T08:14:03;538.10;2406.40
70593;DHT22;58294;42.988;20.338;2023-07-08T08:16:30;538.30;2406.40
70593;DHT22;58294;42.988;20.338;2023-07-08T08:18:56;538.00;2406.40
70593;DHT22;58294;42.988;20.338;2023-07-08T08:21:21;538.10;2406.40
70593;DHT22;58294;42.988;20.338;2023-07-08T08:23:47;538.20;2406.40
70593;DHT22;58294;42.988;20.338;2023-07-08T08:26:15;538.40;2406.40
70593;DHT22;58294;42.988;20.338;2023-07-08T08:28:41;538.30;2406.40
70593;DHT22;58294;42.988;20.338;2023-07-08T08:31:06;538.20;2406.40
70593;DHT22;58294;42.988;20.338;2023-07-08T08:33:32;538.20;2406.40
70593;DHT22;58294;42.988;20.338;2023-07-08T08:35:58;538.20;2406.40
70593;DHT22;58294;42.988;20.338;2023-07-08T08:38:24;538.20;2406.40
70593;DHT22;58294;42.988;20.338;2023-07-08T08:40:49;538.10;2406.40
70593;DHT22;58294;42.988;20.338;2023-07-08T08:43:29;538.00;2406.40
70593;DHT22;58294;42.988;20.338;2023-07-08T08:46:23;538.30;2406.40
70593;DHT22;58294;42.988;20.338;2023-07-08T08:49:22;563.30;2432.00
70593;DHT22;58294;42.988;20.338;2023-07-08T08:51:51;563.70;2432.00
70593;DHT22;58294;42.988;20.338;2023-07-08T08:54:17;563.60;2432.00
70593;DHT22;58294;42.988;20.338;2023-07-08T08:57:10;563.40;2432.00
70593;DHT22;58294;42.988;20.338;2023-07-08T09:04:49;563.70;2432.00
70593;DHT22;58294;42.988;20.338;2023-07-08T09:07:17;563.60;2432.00
70593;DHT22;58294;42.988;20.338;2023-07-08T09:10:01;563.50;2432.00
70593;DHT22;58294;42.988;20.338;2023-07-08T09:12:29;563.50;2432.00
70593;DHT22;58294;42.988;20.338;2023-07-08T09:14:57;563.60;2432.00
70593;DHT22;58294;42.988;20.338;2023-07-08T09:17:28;563.60;2432.00
70593;DHT22;58294;42.988;20.338;2023-07-08T09:20:27;563.50;2432.00
70593;DHT22;58294;42.988;20.338;2023-07-08T09:23:02;563.50;2432.00
70593;DHT22;58294;42.988;20.338;2023-07-08T09:27:58;563.70;2432.00
70593;DHT22;58294;42.988;20.338;2023-07-08T09:30:24;563.80;2432.00
70593;DHT22;58294;42.988;20.338;2023-07-08T09:32:51;563.70;2432.00
70593;DHT22;58294;42.988;20.338;2023-07-08T09:35:27;563.40;2432.00
70593;DHT22;58294;42.988;20.338;2023-07-08T09:37:54;563.40;2432.00
70593;DHT22;58294;42.988;20.338;2023-07-08T09:40:30;563.50;2432.00
70593;DHT22;58294;42.988;20.338;2023-07-08T09:43:20;563.70;2432.00
70593;DHT22;58294;42.988;20.338;2023-07-08T09:45:49;563.70;2432.00
70593;DHT22;58294;42.988;20.338;2023-07-08T09:48:23;563.80;2432.00
70593;DHT22;58294;42.988;20.338;2023-07-08T09:50:52;563.80;2432.00
70593;DHT22;58294;42.988;20.338;2023-07-08T09:53:18;563.90;2432.00
70593;DHT22;58294;42.988;20.338;2023-07-08T09:55:45;564.10;2432.00
70593;DHT22;58294;42.988;20.338;2023-07-08T09:58:16;564.10;2432.00
70593;DHT22;58294;42.988;20.338;2023-07-08T10:00:43;588.80;2432.00
70593;DHT22;58294;42.988;20.338;2023-07-08T10:03:19;589.00;2432.00
70593;DHT22;58294;42.988;20.338;2023-07-08T10:05:47;589.00;2432.00
70593;DHT22;58294;42.988;20.338;2023-07-08T10:08:20;589.10;2432.00
70593;DHT22;58294;42.988;20.338;2023-07-08T10:10:55;589.10;2432.00
70593;DHT22;58294;42.988;20.338;2023-07-08T10:13:38;589.10;2432.00
70593;DHT22;58294;42.988;20.338;2023-07-08T10:18:39;589.20;2432.00
70593;DHT22;58294;42.988;20.338;2023-07-08T10:21:10;589.40;2432.00
70593;DHT22;58294;42.988;20.338;2023-07-08T10:23:54;589.70;2432.00
70593;DHT22;58294;42.988;20.338;2023-07-08T10:26:28;589.60;2432.00
70593;DHT22;58294;42.988;20.338;2023-07-08T10:34:49;614.40;2432.00
70593;DHT22;58294;42.988;20.338;2023-07-08T10:53:46;845.70;2432.00
70593;DHT22;58294;42.988;20.338;2023-07-08T10:59:22;896.00;2432.00
70593;DHT22;58294;42.988;20.338;2023-07-08T11:07:27;845.30;2227.20
70593;DHT22;58294;42.988;20.338;2023-07-08T11:12:40;819.60;2432.00
70593;DHT22;58294;42.988;20.338;2023-07-08T11:15:31;870.80;2432.00
70593;DHT22;58294;42.988;20.338;2023-07-08T11:18:06;819.90;2432.00
70593;DHT22;58294;42.988;20.338;2023-07-08T11:20:54;794.20;2304.00
70593;DHT22;58294;42.988;20.338;2023-07-08T11:28:37;768.10;2432.00
70593;DHT22;58294;42.988;20.338;2023-07-08T11:33:31;870.40;2432.00
70593;DHT22;58294;42.988;20.338;2023-07-08T11:35:59;844.80;2227.20
70593;DHT22;58294;42.988;20.338;2023-07-08T11:38:26;768.70;2432.00
70593;DHT22;58294;42.988;20.338;2023-07-08T11:41:00;793.60;2432.00
70593;DHT22;58294;42.988;20.338;2023-07-08T11:43:27;819.40;2432.00
70593;DHT22;58294;42.988;20.338;2023-07-08T11:45:56;819.50;2432.00
70593;DHT22;58294;42.988;20.338;2023-07-08T11:48:38;820.10;2432.00
70593;DHT22;58294;42.988;20.338;2023-07-08T11:51:06;820.00;2432.00
70593;DHT22;58294;42.988;20.338;2023-07-08T11:53:45;819.30;2432.00
70593;DHT22;58294;42.988;20.338;2023-07-08T11:56:21;844.90;2432.00
70593;DHT22;58294;42.988;20.338;2023-07-08T12:01:19;819.70;1203.20
70593;DHT22;58294;42.988;20.338;2023-07-08T12:03:48;819.40;2432.00
70593;DHT22;58294;42.988;20.338;2023-07-08T12:06:47;819.40;2432.00
70593;DHT22;58294;42.988;20.338;2023-07-08T12:09:27;819.80;2432.00
70593;DHT22;58294;42.988;20.338;2023-07-08T12:12:01;870.40;2432.00
70593;DHT22;58294;42.988;20.338;2023-07-08T12:14:28;870.60;2432.00
70593;DHT22;58294;42.988;20.338;2023-07-08T12:19:22;896.10;2432.00
70593;DHT22;58294;42.988;20.338;2023-07-08T12:21:51;896.70;2432.00
70593;DHT22;58294;42.988;20.338;2023-07-08T12:24:18;896.70;2304.00
70593;DHT22;58294;42.988;20.338;2023-07-08T12:26:44;922.20;2432.00
70593;DHT22;58294;42.988;20.338;2023-07-08T12:29:13;922.50;1280.00
70593;DHT22;58294;42.988;20.338;2023-07-08T12:31:41;947.20;2432.00
70593;DHT22;58294;42.988;20.338;2023-07-08T12:34:15;922.40;2048.00
70593;DHT22;58294;42.988;20.338;2023-07-08T12:36:43;921.90;1766.40
70593;DHT22;58294;42.988;20.338;2023-07-08T12:39:12;896.40;1817.60
70593;DHT22;58294;42.988;20.338;2023-07-08T12:41:41;896.80;1996.80
70593;DHT22;58294;42.988;20.338;2023-07-08T12:44:21;922.10;1843.20
70593;DHT22;58294;42.988;20.338;2023-07-08T12:49:16;947.50;1740.80
70593;DHT22;58294;42.988;20.338;2023-07-08T12:51:46;947.30;819.20
70593;DHT22;58294;42.988;20.338;2023-07-08T12:54:12;922.10;896.00
70593;DHT22;58294;42.988;20.338;2023-07-08T12:56:40;947.30;972.80
70593;DHT22;58294;42.988;20.338;2023-07-08T13:06:31;973.30;1971.20
70593;DHT22;58294;42.988;20.338;2023-07-08T13:29:01;947.70;1305.60
70593;DHT22;58294;42.988;20.338;2023-07-08T13:31:33;947.20;1561.60
70593;DHT22;58294;42.988;20.338;2023-07-08T13:36:35;870.40;1280.00
70593;DHT22;58294;42.988;20.338;2023-07-08T13:39:07;845.20;1408.00
70593;DHT22;58294;42.988;20.338;2023-07-08T13:41:34;819.80;1459.20
70593;DHT22;58294;42.988;20.338;2023-07-08T13:57:28;768.10;2432.00
70593;DHT22;58294;42.988;20.338;2023-07-08T14:02:28;742.70;1126.40
70593;DHT22;58294;42.988;20.338;2023-07-08T14:04:56;742.60;1100.80
70593;DHT22;58294;42.988;20.338;2023-07-08T14:07:28;717.60;1203.20
70593;DHT22;58294;42.988;20.338;2023-07-08T14:12:21;716.90;1689.60
70593;DHT22;58294;42.988;20.338;2023-07-08T14:14:47;692.10;1971.20
70593;DHT22;58294;42.988;20.338;2023-07-08T14:17:18;691.80;1561.60
70593;DHT22;58294;42.988;20.338;2023-07-08T14:19:44;691.70;1740.80
70593;DHT22;58294;42.988;20.338;2023-07-08T14:24:39;691.60;1331.20
70593;DHT22;58294;42.988;20.338;2023-07-08T14:41:49;691.20;2304.00
70593;DHT22;58294;42.988;20.338;2023-07-08T14:44:24;666.40;1689.60
70593;DHT22;58294;42.988;20.338;2023-07-08T14:46:51;666.10;1920.00
70593;DHT22;58294;42.988;20.338;2023-07-08T14:49:19;666.00;2432.00
70593;DHT22;58294;42.988;20.338;2023-07-08T14:51:45;666.10;2432.00
70593;DHT22;58294;42.988;20.338;2023-07-08T14:54:11;666.10;1612.80
70593;DHT22;58294;42.988;20.338;2023-07-08T14:56:38;666.20;2432.00
70593;DHT22;58294;42.988;20.338;2023-07-08T14:59:04;666.00;2048.00
70593;DHT22;58294;42.988;20.338;2023-07-08T15:01:30;665.90;1894.40
70593;DHT22;58294;42.988;20.338;2023-07-08T15:03:57;666.00;1510.40
70593;DHT22;58294;42.988;20.338;2023-07-08T15:06:23;665.90;1817.60
70593;DHT22;58294;42.988;20.338;2023-07-08T15:08:49;665.90;1996.80
70593;DHT22;58294;42.988;20.338;2023-07-08T15:23:36;665.60;2201.60
70593;DHT22;58294;42.988;20.338;2023-07-08T15:26:02;665.60;1766.40
70593;DHT22;58294;42.988;20.338;2023-07-08T15:28:47;665.60;1843.20
70593;DHT22;58294;42.988;20.338;2023-07-08T15:31:15;640.80;2355.20
70593;DHT22;58294;42.988;20.338;2023-07-08T15:33:43;640.70;2329.60
70593;DHT22;58294;42.988;20.338;2023-07-08T15:46:26;640.40;2432.00
70593;DHT22;58294;42.988;20.338;2023-07-08T15:48:53;640.20;2278.40
70593;DHT22;58294;42.988;20.338;2023-07-08T15:51:19;640.20;2432.00
70593;DHT22;58294;42.988;20.338;2023-07-08T15:53:45;640.20;2432.00
70593;DHT22;58294;42.988;20.338;2023-07-08T15:56:12;640.10;2432.00
70593;DHT22;58294;42.988;20.338;2023-07-08T15:58:41;640.10;2176.00
70593;DHT22;58294;42.988;20.338;2023-07-08T16:01:16;640.10;2329.60
70593;DHT22;58294;42.988;20.338;2023-07-08T16:03:44;640.20;2432.00
70593;DHT22;58294;42.988;20.338;2023-07-08T16:06:10;640.10;2432.00
70593;DHT22;58294;42.988;20.338;2023-07-08T16:08:35;640.10;2099.20
70593;DHT22;58294;42.988;20.338;2023-07-08T16:11:04;640.10;2150.40
70593;DHT22;58294;42.988;20.338;2023-07-08T16:13:35;640.00;2048.00
70593;DHT22;58294;42.988;20.338;2023-07-08T16:16:02;640.10;2432.00
70593;DHT22;58294;42.988;20.338;2023-07-08T16:18:28;640.10;2432.00
70593;DHT22;58294;42.988;20.338;2023-07-08T16:20:54;640.10;2432.00
70593;DHT22;58294;42.988;20.338;2023-07-08T16:23:20;640.00;2201.60
70593;DHT22;58294;42.988;20.338;2023-07-08T16:25:48;640.00;2252.80
70593;DHT22;58294;42.988;20.338;2023-07-08T16:28:36;640.00;2432.00
70593;DHT22;58294;42.988;20.338;2023-07-08T16:31:20;615.20;2432.00
70593;DHT22;58294;42.988;20.338;2023-07-08T16:33:47;615.20;2432.00
70593;DHT22;58294;42.988;20.338;2023-07-08T16:36:20;615.20;2355.20
70593;DHT22;58294;42.988;20.338;2023-07-08T16:38:47;615.20;2278.40
70593;DHT22;58294;42.988;20.338;2023-07-08T16:41:19;615.10;2432.00
70593;DHT22;58294;42.988;20.338;2023-07-08T16:43:45;615.00;2432.00
70593;DHT22;58294;42.988;20.338;2023-07-08T16:46:13;614.90;2432.00
70593;DHT22;58294;42.988;20.338;2023-07-08T16:48:39;614.80;2432.00
70593;DHT22;58294;42.988;20.338;2023-07-08T16:51:16;614.70;2278.40
70593;DHT22;58294;42.988;20.338;2023-07-08T16:53:43;614.80;2432.00
70593;DHT22;58294;42.988;20.338;2023-07-08T16:56:15;614.80;2432.00
70593;DHT22;58294;42.988;20.338;2023-07-08T16:58:42;614.80;2432.00
70593;DHT22;58294;42.988;20.338;2023-07-08T17:01:23;614.80;2432.00
70593;DHT22;58294;42.988;20.338;2023-07-08T17:03:52;614.60;2432.00
70593;DHT22;58294;42.988;20.338;2023-07-08T17:13:38;589.70;2432.00
70593;DHT22;58294;42.988;20.338;2023-07-08T17:16:04;589.60;2432.00
70593;DHT22;58294;42.988;20.338;2023-07-08T17:18:30;589.30;2432.00
70593;DHT22;58294;42.988;20.338;2023-07-08T17:20:59;589.40;2432.00
70593;DHT22;58294;42.988;20.338;2023-07-08T17:23:26;589.20;2432.00
70593;DHT22;58294;42.988;20.338;2023-07-08T17:25:52;589.10;2432.00
70593;DHT22;58294;42.988;20.338;2023-07-08T17:28:18;589.00;2432.00
70593;DHT22;58294;42.988;20.338;2023-07-08T17:30:46;589.10;2432.00
70593;DHT22;58294;42.988;20.338;2023-07-08T18:19:54;588.90;2432.00
70593;DHT22;58294;42.988;20.338;2023-07-08T18:22:20;588.80;2432.00
70593;DHT22;58294;42.988;20.338;2023-07-08T18:24:46;564.00;2432.00
70593;DHT22;58294;42.988;20.338;2023-07-08T18:27:13;563.90;2432.00